• Join FlightAware (Why Join?)
  • Login
  • US Flag 
12:07AM EDT


 

Airport Tracker/Info


-or-


 

Live Flight TrackerFlight Track Log ✈ LBQ611 ✈ 24-Jul-2013 ✈ KSAT - KDAL

Flight Track Log - Related Links

Times and Time Zones

All times are in EDT time to prevent confusion due to time zone crossing. See the LBQ611 flight status page for this flight to view local times or setup timezone preferences in your user account.

Time Position Orientation Groundspeed Altitude Reporting Facility
EDT Latitude Longitude Course Direction KTS MPH feet Rate Location/Type
12:43AM 29.5200 -98.4569 130° Southeast 182 209 1,500  Level Houston Center
12:43AM 29.5008 -98.4306 130° Southeast 179 206 2,800 2,100 Climbing Houston Center
12:45AM 29.5006 -98.3594 90° East 210 242 5,900 1,920 Climbing Houston Center
12:46AM 29.5611 -98.3617 358° North 221 254 7,600 1,620 Climbing Houston Center
12:47AM 29.6278 -98.3658 357° North 243 280 9,200 1,560 Climbing Houston Center
12:48AM 29.6989 -98.3700 357° North 256 295 10,800 1,620 Climbing Houston Center
12:49AM 29.7778 -98.3744 357° North 264 304 12,500 1,680 Climbing Houston Center
12:50AM 29.8539 -98.3789 357° North 272 313 14,200 1,620 Climbing Houston Center
12:51AM 29.9294 -98.3825 358° North 270 311 15,800 1,500 Climbing Houston Center
12:52AM 30.0028 -98.3797 North 271 312 17,300 1,440 Climbing Houston Center
12:53AM 30.0683 -98.3433 26° Northeast 264 304 18,800 1,380 Climbing Houston Center
12:54AM 30.1356 -98.3094 24° Northeast 264 304 20,100 1,260 Climbing Houston Center
12:55AM 30.2039 -98.2742 24° Northeast 268 308 21,400 1,200 Climbing Houston Center
12:56AM 30.2722 -98.2372 25° Northeast 271 312 22,600 960 Climbing Houston Center
12:57AM 30.3336 -98.2056 24° Northeast 281 323 23,400 900 Climbing Houston Center
12:58AM 30.4089 -98.1669 24° Northeast 290 334 24,400 780 Climbing Houston Center
12:59AM 30.4842 -98.1267 25° Northeast 293 337 25,000 240 Climbing Houston Center
01:00AM 30.5667 -98.0839 24° Northeast 314 361 25,000  Level Houston Center
01:01AM 30.6536 -98.0392 24° Northeast 331 381 25,000  Level Houston Center
01:02AM 30.7422 -97.9922 24° Northeast 343 395 25,000  Level Houston Center
01:03AM 30.8314 -97.9458 24° Northeast 346 398 25,000  Level Houston Center
01:04AM 30.9219 -97.8975 25° Northeast 352 405 25,000  Level Houston Center
01:05AM 31.0136 -97.8494 24° Northeast 354 407 25,000  Level Houston Center
01:06AM 31.1047 -97.8003 25° Northeast 355 409 25,000  Level Houston Center
01:07AM 31.1975 -97.7517 24° Northeast 358 412 25,000  Level Houston Center
01:08AM 31.3047 -97.6953 24° Northeast 354 407 25,000  Level Fort Worth Center
01:09AM 31.3947 -97.6469 25° Northeast 354 407 25,000  Level Fort Worth Center
01:10AM 31.4825 -97.6008 24° Northeast 348 400 25,000  Level Fort Worth Center
01:11AM 31.5703 -97.5547 24° Northeast 343 395 25,000  Level Fort Worth Center
01:12AM 31.6494 -97.5108 25° Northeast 336 387 25,000 -300 Level Fort Worth Center
01:13AM 31.7353 -97.4622 26° Northeast 342 394 24,400 -960 Descending Fort Worth Center
01:14AM 31.8292 -97.4108 25° Northeast 354 407 23,100 -1,440 Descending Fort Worth Center
01:15AM 31.9253 -97.3594 24° Northeast 369 425 21,600 -1,500 Descending Fort Worth Center
01:16AM 32.0275 -97.3056 24° Northeast 362 417 20,100 -1,440 Descending Fort Worth Center
01:17AM 32.1067 -97.2614 25° Northeast 356 410 18,800 -1,440 Descending Fort Worth Center
01:18AM 32.2047 -97.2072 25° Northeast 350 403 17,300 -1,560 Descending Fort Worth Center
01:19AM 32.2800 -97.1653 25° Northeast 338 389 15,700 -1,860 Descending Fort Worth Center
01:20AM 32.3675 -97.1183 24° Northeast 322 371 13,600 -1,920 Descending Fort Worth Center
01:21AM 32.4383 -97.0786 25° Northeast 312 359 11,900 -1,860 Descending Fort Worth Center
01:22AM 32.5239 -97.0314 25° Northeast 307 353 9,900 -1,920 Descending Fort Worth Center
01:23AM 32.5925 -96.9942 25° Northeast 301 346 8,100 -1,920 Descending Fort Worth Center
01:24AM 32.6500 -96.9667 22° Northeast 294 338 6,900 -2,160 Descending Dallas / Fort Worth TRACON
01:24AM 32.7167 -96.9167 32° Northeast 279 321 4,800 -2,040 Descending Dallas / Fort Worth TRACON
01:25AM 32.7833 -96.9000 12° North 255 293 3,100 -1,140 Descending Dallas / Fort Worth TRACON
01:26AM 32.8333 -96.9000 360° North 173 199 2,800 -960 Descending Dallas / Fort Worth TRACON
01:27AM 32.8667 -96.9000 360° North 111 128 1,300 -1,500 Descending Dallas / Fort Worth TRACON